Strona główna
METAR-TAF:

METAR-TAF

Lotnisko :

Port lotniczy Cần Thơ

Cần Thơ, Wietnam

Szerokość geograficzna: 10-05-07N, Długość geograficzna: 105-42-43E, wysokość: 3 m

Aktualna obserwacja pogody

Raport powstał 35 minut temu, godzina 22:30 UTC
Wiatr 3 kt od północny wschód
Temperatura 26°C
Wilgotność 94%
Ciśnienie 1011 hPa
Widzialność 10 km lub więcej
Mało chmury na wysokości 1500 ft

METAR: VVCT 102230Z 04003KT 9999 FEW015 26/25 Q1011 NOSIG

czas: 06:05 (23:05 UTC)

Prognoza

Raport powstał 6 godziny i 5 minut temu, godzina 17:00 UTC
Prognoza ważna od 10 godzina 18 UTC do 11 godzina 18 UTC
Wiatr 8 kt od wschodnio-południowy wschód
Widzialność 10 km lub więcej
Rozproszone chmury na wysokości 1500 ft
Rozproszone chmury na wysokości 4000 ft
Przejściowo
od 11 godzina 08 UTC do 11 godzina 11 UTC
Widzialność: 5000 m
Rozproszone chmury na wysokości 1500 ft
Mało chmury na wysokości 1700 ft, Cumulonimbus.
burza, deszcz

TAF: VVCT 101700Z 1018/1118 11008KT 9999 SCT015 SCT040 TEMPO 1108/1111 5000 TSRA SCT015 FEW017CB

Obserwacja i prognoza pogody dla ponad 4000 lotnisk (raport METAR i TAF).

Dostępne stacje oznaczono żółtymi i czerwonymi punktami na mapie.

Najedź kursorem aby zobaczyć nazwę stacji.

Kliknij aby zobaczyć obserwacje i prognozy pogody.

Aby zmienić mapę: kliknij na zielony przycisk z czarnym krzyżykiem, aby powiększyć; na zielony przycisk z myślnikiem, aby pomniejszyć; na zielone strzałki, aby przejść do map sąsiednich.


METAR-TAF: